Winnipeg, Canada
Current Conditions -  °F | °C
As of 4:00 PM on Friday 19 Dec 2014 (Local Time) from CYWG Reporting Station
Light Snow Light Snow  
Wind Chill: 15°   Ceiling: 400
Heat Index: 25°   Visibility: 2.5mi
Dew Point: 23°   Wind: 10mph
Humidity: 93%   Direction: 180°S
Pressure: 30.04"   Gusts: NA
Location:  49.9°N, 97.14°W
Report Text: CYWG 192200Z 18009KT 2 1/2SM -FZDZ -SG OVC004 M04/M05 A3004 RMK ST8 SLP188
Loading
Personal Weather Stations






























Interactive Weather Map New forecast layout! Learn more

10-Day Weather Forecast

Advertisements
Track Severe Weather on mobile